LYBE/BEG METAR and TAF weather

Enter ICAO airport designator
Station Type Date Time Source
LYBE METAR 2021/09/25 11:30 UTC NOAA

LYBE 251130Z 26006KT 140V310 CAVOK 25/11 Q1022 NOSIG


Station Type Date Time Source
LYBE Decoded METAR 2021/09/25 11:30 UTC NOAA

Beograd / Surcin, Serbia and Montenegro (LYBE) 44-49N 020-17E 99M
Sep 25, 2021 - 07:30 AM EDT / 2021.09.25 1130 UTC
Wind: from the W (260 degrees) at 7 MPH (6 KT) (direction variable):0
Visibility: greater than 7 mile(s):0
Temperature: 77 F (25 C)
Dew Point: 51 F (11 C)
Relative Humidity: 41%
Pressure (altimeter): 30.18 in. Hg (1022 hPa)
ob: LYBE 251130Z 26006KT 140V310 CAVOK 25/11 Q1022 NOSIG
cycle: 11

Station Type Date Time Source
LYBE TAF 2021/09/25 12:26 UTC NOAA

TAF LYBE 251100Z 2512/2612 20006KT CAVOK TX26/2513Z TN14/2604Z

Example: see airport list